Time;durP1;ratioP1;P1;durP2;ratioP2;P2;SDS_P1;SDS_P2;PMS_P1;PMS_P2;Temp;Humidity;BMP_temperature;BMP_pressure;BME280_temperature;BME280_humidity;BME280_pressure;Samples;Min_cycle;Max_cycle;Signal;HPM_P1;HPM_P2
2022/04/17 00:00:29;;;;;;;12.00;6.10;;;;;;;1.41;61.08;101862.92;88084;1276;78760;-71
2022/04/17 00:02:44;;;;;;;10.90;6.00;;;;;;;1.34;61.31;101862.42;88094;1276;79141;-61
2022/04/17 00:04:54;;;;;;;13.40;6.00;;;;;;;1.27;61.49;101860.77;88117;1276;100036;-62
2022/04/17 00:07:00;;;;;;;10.20;5.80;;;;;;;1.17;61.97;101858.35;88128;1276;89507;-60
2022/04/17 00:09:09;;;;;;;10.40;5.90;;;;;;;1.08;62.23;101856.77;88074;1276;94933;-61
2022/04/17 00:11:15;;;;;;;9.20;5.50;;;;;;;0.98;62.36;101856.30;88064;1278;78457;-59
2022/04/17 00:13:21;;;;;;;9.00;5.00;;;;;;;0.92;62.85;101854.93;88141;1276;83014;-69
2022/04/17 00:15:30;;;;;;;10.10;5.60;;;;;;;0.88;63.16;101852.87;88031;1277;98797;-71
2022/04/17 00:17:37;;;;;;;8.40;4.90;;;;;;;0.86;63.23;101852.79;88098;1278;87671;-70
2022/04/17 00:19:46;;;;;;;9.90;5.20;;;;;;;0.85;63.44;101851.83;88098;1276;93825;-60
2022/04/17 00:21:55;;;;;;;7.80;4.80;;;;;;;0.86;63.63;101850.16;88102;1276;81654;-59
2022/04/17 00:24:01;;;;;;;8.80;4.80;;;;;;;0.81;63.61;101850.26;88094;1276;83673;-70
2022/04/17 00:26:07;;;;;;;8.80;4.70;;;;;;;0.82;63.98;101849.00;88056;1278;98102;-68
2022/04/17 00:28:13;;;;;;;10.10;4.50;;;;;;;0.85;64.08;101845.43;88098;1277;88893;-68
2022/04/17 00:30:19;;;;;;;7.70;4.70;;;;;;;0.85;64.09;101846.15;88093;1276;95150;-69
2022/04/17 00:32:28;;;;;;;9.30;5.00;;;;;;;0.80;64.33;101847.48;88094;1279;77028;-68
2022/04/17 00:34:36;;;;;;;7.70;4.30;;;;;;;0.75;64.47;101851.02;88103;1276;83485;-71
2022/04/17 00:36:42;;;;;;;8.20;4.60;;;;;;;0.70;64.54;101849.55;88100;1276;98977;-69
2022/04/17 00:38:51;;;;;;;7.20;4.60;;;;;;;0.60;64.68;101850.61;88040;1279;86031;-68
2022/04/17 00:40:57;;;;;;;9.20;5.00;;;;;;;0.55;64.63;101849.89;88092;1276;94484;-67
2022/04/17 00:43:02;;;;;;;9.50;4.40;;;;;;;0.51;64.60;101851.89;88109;1276;79365;-69
2022/04/17 00:45:11;;;;;;;8.70;4.60;;;;;;;0.39;65.13;101849.21;88049;1279;83189;-70
2022/04/17 00:47:17;;;;;;;8.80;4.80;;;;;;;0.31;65.08;101846.86;88112;1276;99173;-70
2022/04/17 00:49:26;;;;;;;7.60;4.60;;;;;;;0.26;65.35;101841.84;88105;1276;89005;-69
2022/04/17 00:51:36;;;;;;;9.60;5.30;;;;;;;0.20;65.65;101839.89;88075;1274;92003;-71
2022/04/17 00:53:45;;;;;;;9.50;4.80;;;;;;;0.12;65.56;101843.02;88096;1278;80666;-59
2022/04/17 00:55:51;;;;;;;6.70;4.20;;;;;;;0.12;65.74;101837.36;88103;1276;81635;-60
2022/04/17 00:58:01;;;;;;;7.80;4.50;;;;;;;0.13;65.92;101842.95;88068;1279;98562;-70
2022/04/17 01:00:11;;;;;;;7.90;4.20;;;;;;;0.15;66.23;101842.52;88074;1279;88409;-68
2022/04/17 01:02:18;;;;;;;5.10;3.60;;;;;;;0.14;66.09;101839.53;88069;1279;94841;-69
2022/04/17 01:04:27;;;;;;;7.00;4.30;;;;;;;0.16;66.38;101833.90;88099;1276;79923;-60
2022/04/17 01:06:33;;;;;;;7.20;4.10;;;;;;;0.16;66.42;101833.61;88238;1276;80199;-60
2022/04/17 01:08:42;;;;;;;7.00;4.10;;;;;;;0.10;66.65;101838.52;88155;1276;98584;-71
2022/04/17 01:10:48;;;;;;;7.60;4.00;;;;;;;0.00;66.57;101844.05;88058;1279;88756;-69
2022/04/17 01:12:58;;;;;;;7.90;4.30;;;;;;;-0.10;66.77;101841.41;88113;1276;93203;-60
2022/04/17 01:15:06;;;;;;;7.50;4.30;;;;;;;-0.11;66.66;101844.36;88094;1276;77304;-60
2022/04/17 01:17:12;;;;;;;6.40;3.80;;;;;;;-0.15;67.04;101834.98;88092;1277;80765;-60
2022/04/17 01:19:18;;;;;;;10.50;4.50;;;;;;;-0.16;67.01;101836.48;88062;1279;100082;-69
2022/04/17 01:21:24;;;;;;;8.00;4.70;;;;;;;-0.19;67.21;101836.48;88108;1276;89243;-69
2022/04/17 01:28:36;;;;;;;7.10;4.00;;;;;;;-0.37;67.74;101825.98;87727;1282;81828;-69
2022/04/17 01:30:45;;;;;;;8.20;4.00;;;;;;;-0.37;67.80;101825.65;87858;1279;99439;-69
2022/04/17 01:32:51;;;;;;;6.90;4.10;;;;;;;-0.38;67.79;101821.06;88110;1276;88853;-70
2022/04/17 01:34:56;;;;;;;6.00;3.90;;;;;;;-0.41;67.85;101820.71;88073;1276;95350;-70
2022/04/17 01:37:06;;;;;;;7.30;4.20;;;;;;;-0.39;68.19;101818.50;88111;1276;77235;-70
2022/04/17 01:39:11;;;;;;;7.10;4.40;;;;;;;-0.40;68.21;101814.48;88123;1276;82190;-60
2022/04/17 01:41:20;;;;;;;8.80;4.30;;;;;;;-0.46;68.33;101812.47;88024;1279;99646;-64
2022/04/17 01:43:26;;;;;;;8.20;4.50;;;;;;;-0.49;68.59;101814.10;88199;1276;88703;-71
2022/04/17 01:45:32;;;;;;;9.20;4.30;;;;;;;-0.56;68.58;101810.59;88167;1276;94883;-69
2022/04/17 01:47:38;;;;;;;6.20;4.50;;;;;;;-0.63;68.63;101812.15;88173;1276;77821;-68
2022/04/17 01:49:43;;;;;;;6.30;3.80;;;;;;;-0.69;68.83;101813.20;88176;1276;82238;-70
2022/04/17 01:51:53;;;;;;;7.50;4.40;;;;;;;-0.76;68.83;101811.48;88144;1276;99940;-70
2022/04/17 01:54:02;;;;;;;7.90;4.80;;;;;;;-0.79;69.15;101808.45;88215;1276;88652;-61
2022/04/17 01:56:11;;;;;;;7.80;4.20;;;;;;;-0.78;69.17;101806.13;88090;1276;95539;-61
2022/04/17 01:58:19;;;;;;;8.10;4.40;;;;;;;-0.76;69.25;101807.41;88153;1276;80789;-60
2022/04/17 02:00:26;;;;;;;6.50;4.10;;;;;;;-0.77;69.61;101808.70;88154;1276;81528;-60
2022/04/17 02:02:34;;;;;;;6.80;4.50;;;;;;;-0.76;69.48;101805.50;88151;1276;100045;-60
2022/04/17 02:04:43;;;;;;;7.40;4.20;;;;;;;-0.77;69.79;101807.46;88144;1276;88963;-61
2022/04/17 02:06:51;;;;;;;8.10;4.40;;;;;;;-0.76;69.86;101806.38;88165;1276;95498;-59
2022/04/17 02:08:58;;;;;;;6.70;4.10;;;;;;;-0.76;70.25;101800.86;88173;1276;79269;-61
2022/04/17 02:11:06;;;;;;;7.00;3.70;;;;;;;-0.79;70.36;101803.34;88185;1276;80297;-60
2022/04/17 02:13:15;;;;;;;8.30;4.40;;;;;;;-0.75;70.25;101803.98;88154;1276;98422;-69
2022/04/17 02:15:21;;;;;;;8.50;4.20;;;;;;;-0.68;70.36;101800.08;88163;1276;86964;-70
2022/04/17 02:17:27;;;;;;;7.20;4.70;;;;;;;-0.55;70.53;101798.52;88039;1277;95981;-70
2022/04/17 02:19:33;;;;;;;8.60;4.20;;;;;;;-0.47;70.31;101797.31;88169;1276;80229;-71
2022/04/17 02:21:41;;;;;;;8.80;4.90;;;;;;;-0.47;70.23;101796.65;88072;1278;82976;-71
2022/04/17 02:23:48;;;;;;;5.70;4.00;;;;;;;-0.53;70.13;101801.02;88066;1279;100056;-59
2022/04/17 02:25:53;;;;;;;7.50;4.40;;;;;;;-0.55;70.19;101802.42;88144;1276;88861;-60
2022/04/17 02:27:59;;;;;;;11.80;5.10;;;;;;;-0.56;70.12;101801.06;88081;1276;94537;-72
2022/04/17 02:30:08;;;;;;;6.20;3.90;;;;;;;-0.61;69.90;101800.02;88062;1278;79132;-69
2022/04/17 02:32:15;;;;;;;7.70;4.90;;;;;;;-0.66;70.19;101802.27;88100;1276;82862;-73
2022/04/17 02:34:25;;;;;;;7.50;4.20;;;;;;;-0.70;70.23;101800.39;88168;1276;97640;-70
2022/04/17 02:36:31;;;;;;;7.20;4.30;;;;;;;-0.74;70.22;101799.52;88184;1276;89038;-71
2022/04/17 02:38:37;;;;;;;6.80;4.20;;;;;;;-0.79;70.57;101799.62;88128;1276;93115;-70
2022/04/17 02:40:43;;;;;;;8.20;4.60;;;;;;;-0.81;70.68;101800.83;88176;1276;77756;-70
2022/04/17 02:42:48;;;;;;;8.00;4.30;;;;;;;-0.84;70.91;101798.50;88106;1276;80200;-60
2022/04/17 02:44:54;;;;;;;8.70;4.70;;;;;;;-0.84;70.88;101796.16;88060;1277;99207;-60
2022/04/17 02:49:24;;;;;;;8.10;4.40;;;;;;;-0.88;71.12;101796.41;88078;1276;94342;-71
2022/04/17 02:51:33;;;;;;;8.50;4.50;;;;;;;-0.88;71.14;101796.42;88055;1278;78558;-71
2022/04/17 02:53:39;;;;;;;7.30;4.30;;;;;;;-0.90;71.28;101797.39;88085;1278;81254;-60
2022/04/17 02:55:45;;;;;;;9.80;4.50;;;;;;;-0.88;71.16;101796.07;88116;1276;99910;-59
2022/04/17 02:57:52;;;;;;;10.80;4.90;;;;;;;-0.86;71.10;101794.70;88087;1276;87734;-60
2022/04/17 03:00:01;;;;;;;8.50;4.40;;;;;;;-0.85;71.27;101790.43;88124;1276;94581;-61
2022/04/17 03:06:55;;;;;;;7.80;4.10;;;;;;;-0.81;71.66;101782.77;87817;1279;99976;-60
2022/04/17 03:09:00;;;;;;;7.70;4.40;;;;;;;-0.79;71.73;101785.33;88110;1276;86388;-61
2022/04/17 03:11:09;;;;;;;9.80;4.80;;;;;;;-0.78;71.86;101784.35;88148;1276;95301;-61
2022/04/17 03:13:15;;;;;;;7.30;4.70;;;;;;;-0.71;71.95;101786.79;88074;1276;81195;-61
2022/04/17 03:15:21;;;;;;;9.60;4.70;;;;;;;-0.68;71.82;101786.27;88103;1276;82264;-61
2022/04/17 03:17:28;;;;;;;7.20;4.70;;;;;;;-0.66;71.99;101783.68;88074;1276;99902;-61
2022/04/17 03:19:33;;;;;;;6.90;4.20;;;;;;;-0.60;72.18;101787.27;88123;1276;87061;-61
2022/04/17 03:21:39;;;;;;;8.60;4.50;;;;;;;-0.55;71.96;101782.59;87428;1278;857242;-65
2022/04/17 03:23:45;;;;;;;5.60;3.60;;;;;;;-0.51;72.27;101786.23;88135;1276;78931;-60
2022/04/17 03:25:50;;;;;;;7.10;4.40;;;;;;;-0.49;72.19;101790.91;88111;1276;82113;-61
2022/04/17 03:27:57;;;;;;;8.70;3.90;;;;;;;-0.49;72.11;101788.09;88227;1274;99807;-60
2022/04/17 03:30:03;;;;;;;6.50;3.90;;;;;;;-0.52;72.18;101788.98;88193;1274;88557;-60
2022/04/17 03:32:10;;;;;;;6.50;4.00;;;;;;;-0.51;72.42;101791.75;88164;1277;94220;-61
2022/04/17 03:34:16;;;;;;;8.90;4.30;;;;;;;-0.50;72.56;101793.95;88215;1275;78983;-61
2022/04/17 03:36:25;;;;;;;7.30;4.60;;;;;;;-0.51;72.49;101795.60;88219;1274;82622;-60
2022/04/17 03:38:33;;;;;;;7.20;4.30;;;;;;;-0.51;72.50;101797.23;88182;1274;98148;-71
2022/04/17 03:40:39;;;;;;;8.50;4.30;;;;;;;-0.46;72.64;101800.30;88207;1277;88261;-70
2022/04/17 03:42:45;;;;;;;7.20;4.20;;;;;;;-0.43;72.29;101796.92;88238;1277;93747;-60
2022/04/17 03:44:52;;;;;;;7.50;4.60;;;;;;;-0.43;72.47;101797.64;88103;1276;81216;-61
2022/04/17 03:46:58;;;;;;;7.70;4.50;;;;;;;-0.40;72.58;101796.23;88190;1277;82646;-59
2022/04/17 03:49:04;;;;;;;5.30;3.90;;;;;;;-0.34;72.62;101797.69;88159;1274;98595;-69
2022/04/17 03:51:10;;;;;;;6.90;3.80;;;;;;;-0.29;72.78;101796.16;88182;1275;87878;-69
2022/04/17 03:53:16;;;;;;;7.80;4.40;;;;;;;-0.23;72.88;101796.12;88211;1274;94936;-71
2022/04/17 03:55:23;;;;;;;6.90;4.10;;;;;;;-0.12;72.87;101792.31;88166;1275;79047;-72
2022/04/17 03:57:30;;;;;;;6.80;3.90;;;;;;;-0.03;73.08;101788.11;88213;1275;80272;-60
2022/04/17 03:59:36;;;;;;;6.90;4.40;;;;;;;0.01;72.64;101790.87;88197;1274;98166;-61
2022/04/17 04:01:42;;;;;;;10.40;5.10;;;;;;;0.09;72.82;101788.50;88215;1274;88957;-62
2022/04/17 04:03:52;;;;;;;9.50;6.10;;;;;;;0.15;72.91;101792.34;88226;1277;95455;-71
2022/04/17 04:06:01;;;;;;;10.30;5.00;;;;;;;0.19;72.93;101791.60;88114;1276;79987;-72
2022/04/17 04:08:10;;;;;;;10.10;5.40;;;;;;;0.25;72.81;101792.66;88175;1276;81633;-59
2022/04/17 04:10:16;;;;;;;7.80;5.00;;;;;;;0.31;72.67;101793.92;88199;1277;99091;-61
2022/04/17 04:12:26;;;;;;;11.30;5.30;;;;;;;0.40;72.88;101797.21;88211;1275;89814;-65
2022/04/17 04:14:33;;;;;;;8.70;5.20;;;;;;;0.66;72.84;101791.28;88161;1275;94781;-61
2022/04/17 04:16:39;;;;;;;8.00;5.40;;;;;;;0.96;72.56;101788.70;88195;1274;78195;-61
2022/04/17 04:18:48;;;;;;;9.10;5.40;;;;;;;1.18;72.50;101785.89;88179;1274;82926;-70
2022/04/17 04:20:54;;;;;;;7.90;5.00;;;;;;;1.36;72.25;101789.35;88136;1275;99232;-69
2022/04/17 04:23:03;;;;;;;8.50;4.70;;;;;;;1.51;72.11;101783.45;88168;1274;88419;-61
2022/04/17 04:25:12;;;;;;;10.40;5.60;;;;;;;1.80;71.94;101780.64;88176;1274;95835;-61
2022/04/17 04:29:42;;;;;;;9.10;5.50;;;;;;;2.92;71.79;101781.75;88199;1275;81225;-62
2022/04/17 04:31:48;;;;;;;12.20;5.70;;;;;;;4.49;71.37;101783.70;88186;1275;98595;-59
2022/04/17 04:33:54;;;;;;;8.80;5.10;;;;;;;5.85;70.55;101777.34;88227;1274;87272;-70
2022/04/17 04:36:01;;;;;;;11.70;5.30;;;;;;;6.72;68.46;101778.75;88184;1275;95611;-70
2022/04/17 04:38:07;;;;;;;9.40;5.60;;;;;;;7.38;67.67;101781.76;88176;1275;78549;-62
2022/04/17 04:40:16;;;;;;;8.60;5.40;;;;;;;8.13;66.96;101782.83;88128;1276;83246;-58
2022/04/17 04:42:24;;;;;;;9.60;5.20;;;;;;;8.70;65.80;101784.01;88101;1276;97639;-63
2022/04/17 04:44:30;;;;;;;11.40;5.20;;;;;;;9.23;64.81;101785.16;88203;1274;87896;-70
2022/04/17 04:46:39;;;;;;;9.80;5.30;;;;;;;9.26;63.23;101784.36;88172;1275;95271;-69
2022/04/17 04:51:12;;;;;;;10.90;5.00;;;;;;;9.13;61.84;101785.83;88196;1274;80512;-70
2022/04/17 04:53:21;;;;;;;11.70;5.30;;;;;;;8.71;60.96;101783.54;88212;1275;97646;-71
2022/04/17 04:55:30;;;;;;;10.10;4.80;;;;;;;8.50;60.88;101783.37;88181;1275;88121;-70
2022/04/17 04:57:39;;;;;;;7.10;4.40;;;;;;;8.39;60.31;101784.41;88203;1275;93792;-60
2022/04/17 04:59:45;;;;;;;9.80;5.10;;;;;;;8.23;60.00;101781.88;88200;1276;81410;-60
2022/04/17 05:01:52;;;;;;;9.30;5.00;;;;;;;8.26;59.29;101783.41;88220;1274;80883;-60
2022/04/17 05:04:01;;;;;;;8.40;4.70;;;;;;;7.94;59.18;101785.09;88235;1274;99388;-69
2022/04/17 05:06:07;;;;;;;8.70;4.60;;;;;;;7.65;58.91;101788.46;88188;1275;86763;-70
2022/04/17 05:08:13;;;;;;;10.60;5.70;;;;;;;7.34;59.00;101790.00;88156;1276;95679;-60
2022/04/17 05:10:22;;;;;;;9.70;4.70;;;;;;;7.28;59.01;101792.14;88180;1275;79286;-59
2022/04/17 05:12:28;;;;;;;10.10;5.00;;;;;;;7.58;59.23;101786.09;88087;1276;83059;-68
2022/04/17 05:14:34;;;;;;;9.00;4.80;;;;;;;7.40;59.09;101788.56;88171;1274;98668;-68
2022/04/17 05:16:39;;;;;;;8.30;4.60;;;;;;;7.72;59.18;101786.36;88172;1274;88768;-68
2022/04/17 05:18:48;;;;;;;9.30;4.90;;;;;;;8.39;59.16;101789.55;88178;1275;94100;-70
2022/04/17 05:20:57;;;;;;;9.70;5.10;;;;;;;9.25;58.51;101787.67;88197;1277;78881;-68
2022/04/17 05:23:15;;;;;;;7.50;4.40;;;;;;;9.11;57.33;101786.02;88177;1274;81853;-61
2022/04/17 05:25:21;;;;;;;8.40;4.10;;;;;;;8.96;57.29;101789.02;88178;1275;98932;-59
2022/04/17 05:27:27;;;;;;;7.70;4.50;;;;;;;9.95;57.57;101782.42;88074;1276;88678;-61
2022/04/17 05:29:33;;;;;;;7.70;5.00;;;;;;;11.50;56.76;101778.52;88175;1274;94124;-60
2022/04/17 05:31:39;;;;;;;9.40;4.90;;;;;;;12.32;55.49;101775.17;88208;1275;79335;-60
2022/04/17 05:33:45;;;;;;;6.30;4.10;;;;;;;13.30;54.96;101775.61;88199;1274;81481;-58
2022/04/17 05:35:55;;;;;;;5.70;4.10;;;;;;;14.18;54.12;101771.13;88205;1275;98123;-58
2022/04/17 05:38:04;;;;;;;7.90;4.40;;;;;;;14.94;53.13;101769.52;88175;1275;86731;-79
2022/04/17 05:40:14;;;;;;;7.10;3.60;;;;;;;15.48;52.19;101771.17;88248;1275;95186;-62
2022/04/17 05:42:23;;;;;;;6.80;4.30;;;;;;;16.18;50.87;101765.16;88185;1274;80511;-63
2022/04/17 05:44:30;;;;;;;5.80;3.60;;;;;;;17.00;49.99;101769.80;88209;1275;82426;-70
2022/04/17 05:46:41;;;;;;;6.70;4.00;;;;;;;17.45;48.48;101770.89;88159;1276;99570;-73
2022/04/17 05:48:47;;;;;;;6.70;4.00;;;;;;;18.05;47.81;101764.79;88149;1275;88614;-61
2022/04/17 05:50:53;;;;;;;6.20;3.70;;;;;;;18.32;46.74;101764.81;88222;1277;93166;-60
2022/04/17 05:52:59;;;;;;;5.50;3.80;;;;;;;18.27;45.27;101762.12;88162;1275;79396;-70
2022/04/17 05:55:06;;;;;;;7.00;4.10;;;;;;;17.77;44.32;101768.98;88178;1274;82494;-73
2022/04/17 05:57:12;;;;;;;5.80;3.90;;;;;;;17.07;43.87;101770.11;88196;1275;98794;-71
2022/04/17 05:59:17;;;;;;;6.00;4.20;;;;;;;16.34;43.64;101766.39;88180;1274;86503;-63
2022/04/17 06:01:24;;;;;;;7.30;4.60;;;;;;;15.69;43.76;101769.63;88182;1275;95957;-60
2022/04/17 06:03:30;;;;;;;7.20;3.80;;;;;;;15.22;43.44;101768.75;88175;1275;78749;-60
2022/04/17 06:05:39;;;;;;;5.50;3.90;;;;;;;14.56;43.55;101771.49;88190;1274;81713;-60
2022/04/17 06:07:46;;;;;;;7.80;4.30;;;;;;;14.22;43.82;101770.83;88173;1274;99880;-69
2022/04/17 06:09:52;;;;;;;5.20;4.30;;;;;;;14.06;43.92;101770.36;88202;1275;87718;-69
2022/04/17 06:12:02;;;;;;;6.50;3.90;;;;;;;13.87;44.23;101772.21;88211;1272;95608;-69
2022/04/17 06:14:08;;;;;;;5.40;3.70;;;;;;;14.11;44.07;101771.91;88177;1277;79263;-70
2022/04/17 06:16:14;;;;;;;5.00;3.40;;;;;;;14.14;44.03;101770.70;88153;1276;82860;-68
2022/04/17 06:18:20;;;;;;;5.60;3.90;;;;;;;14.21;44.17;101774.98;88148;1274;99103;-71
2022/04/17 06:20:26;;;;;;;5.70;3.80;;;;;;;14.34;44.06;101780.48;88045;1278;88425;-70
2022/04/17 06:22:33;;;;;;;4.30;3.80;;;;;;;14.67;43.90;101781.48;88172;1277;94947;-62
2022/04/17 06:24:38;;;;;;;7.20;3.80;;;;;;;14.86;43.74;101783.36;88140;1277;78620;-60
2022/04/17 06:26:48;;;;;;;5.90;3.70;;;;;;;15.09;43.51;101784.92;88133;1277;83371;-60
2022/04/17 06:29:00;;;;;;;6.80;4.70;;;;;;;14.84;43.03;101786.64;88192;1277;100029;-67
2022/04/17 06:31:07;;;;;;;6.40;4.00;;;;;;;14.64;42.97;101784.88;88125;1276;89035;-68
2022/04/17 06:33:13;;;;;;;5.90;4.20;;;;;;;14.46;42.78;101783.61;88098;1276;93976;-67
2022/04/17 06:35:20;;;;;;;6.50;4.50;;;;;;;14.14;42.85;101782.46;88159;1277;79671;-66
2022/04/17 06:37:30;;;;;;;4.80;3.70;;;;;;;13.83;43.13;101785.20;88199;1276;83633;-60
2022/04/17 06:39:38;;;;;;;6.60;4.50;;;;;;;13.76;43.36;101782.96;88127;1277;98681;-60
2022/04/17 06:41:45;;;;;;;6.30;4.00;;;;;;;13.75;43.35;101782.15;88135;1276;87067;-60
2022/04/17 06:43:51;;;;;;;6.80;4.40;;;;;;;13.71;43.39;101781.60;88113;1276;94556;-60
2022/04/17 06:45:56;;;;;;;6.10;4.10;;;;;;;13.79;43.28;101786.62;88137;1275;80103;-61
2022/04/17 06:48:14;;;;;;;6.90;4.20;;;;;;;14.10;43.34;101783.34;88177;1277;81667;-70
2022/04/17 06:50:22;;;;;;;7.30;3.90;;;;;;;14.20;43.22;101780.65;88179;1277;99237;-68
2022/04/17 06:52:29;;;;;;;6.30;4.30;;;;;;;14.38;43.23;101785.80;88128;1276;88635;-69
2022/04/17 06:54:41;;;;;;;6.20;3.70;;;;;;;14.95;43.27;101779.35;88126;1276;95062;-70
2022/04/17 06:56:50;;;;;;;5.80;3.70;;;;;;;15.79;42.92;101778.09;88110;1276;78200;-69
2022/04/17 06:58:55;;;;;;;6.40;3.50;;;;;;;16.85;42.22;101774.38;88176;1277;81022;-68
2022/04/17 07:01:01;;;;;;;6.70;3.90;;;;;;;17.59;41.68;101773.96;88145;1276;98236;-70
2022/04/17 07:03:08;;;;;;;7.00;4.50;;;;;;;18.44;41.44;101773.14;88114;1278;87409;-58
2022/04/17 07:05:16;;;;;;;4.70;3.80;;;;;;;19.42;40.64;101772.55;88101;1276;95336;-60
2022/04/17 07:07:25;;;;;;;6.50;3.80;;;;;;;20.22;39.49;101764.65;88161;1278;78403;-61
2022/04/17 07:09:30;;;;;;;5.20;3.50;;;;;;;20.97;38.71;101767.37;88123;1276;83474;-61
2022/04/17 07:11:36;;;;;;;6.50;3.80;;;;;;;21.48;37.61;101769.95;88163;1278;99757;-61
2022/04/17 07:13:42;;;;;;;7.00;3.90;;;;;;;21.62;37.01;101772.34;88186;1277;88146;-76
2022/04/17 07:15:48;;;;;;;6.10;3.70;;;;;;;21.43;36.35;101772.34;88128;1277;93373;-73
2022/04/17 07:17:54;;;;;;;5.10;3.70;;;;;;;20.77;35.88;101770.85;88045;1277;80524;-73
2022/04/17 07:20:00;;;;;;;5.00;3.90;;;;;;;20.30;35.74;101770.10;88107;1277;81599;-72
2022/04/17 07:22:07;;;;;;;6.60;3.90;;;;;;;20.00;35.83;101770.52;88140;1277;100005;-74
2022/04/17 07:24:12;;;;;;;6.00;3.90;;;;;;;20.20;35.30;101769.55;88085;1276;89336;-74
2022/04/17 07:26:18;;;;;;;6.10;4.10;;;;;;;19.88;35.35;101771.02;88066;1277;94252;-70
2022/04/17 07:28:25;;;;;;;4.50;3.90;;;;;;;19.56;35.39;101771.75;88165;1277;81411;-63
2022/04/17 07:30:33;;;;;;;4.60;3.60;;;;;;;19.58;35.44;101772.59;88202;1277;83543;-61
2022/04/17 07:32:43;;;;;;;5.30;4.20;;;;;;;20.08;35.28;101771.48;88183;1278;100276;-73
2022/04/17 07:34:50;;;;;;;5.20;3.60;;;;;;;20.46;35.21;101765.96;88135;1276;89481;-71
2022/04/17 07:36:57;;;;;;;5.30;3.60;;;;;;;20.87;34.91;101765.45;88052;1281;95972;-67
2022/04/17 07:39:04;;;;;;;4.60;3.60;;;;;;;21.40;34.64;101768.05;88106;1276;77298;-72
2022/04/17 07:41:10;;;;;;;5.80;3.90;;;;;;;21.68;33.97;101767.40;88141;1277;82785;-70
2022/04/17 07:43:18;;;;;;;4.50;3.30;;;;;;;22.15;33.91;101766.02;88119;1277;99701;-61
2022/04/17 07:45:25;;;;;;;5.00;4.00;;;;;;;22.63;33.45;101764.84;88104;1277;89435;-66
2022/04/17 07:47:31;;;;;;;5.00;3.70;;;;;;;22.74;33.22;101765.23;88100;1277;94612;-62
2022/04/17 07:49:42;;;;;;;7.10;3.70;;;;;;;23.04;32.83;101759.74;88035;1281;79894;-60
2022/04/17 07:51:51;;;;;;;5.50;4.30;;;;;;;23.69;32.16;101757.26;88089;1277;81254;-62
2022/04/17 07:54:01;;;;;;;5.20;3.90;;;;;;;23.91;31.84;101758.46;88161;1277;97600;-74
2022/04/17 07:56:09;;;;;;;6.30;3.60;;;;;;;23.59;31.38;101759.74;88129;1276;86508;-72
2022/04/17 07:58:24;;;;;;;4.80;3.90;;;;;;;23.72;30.86;101754.06;88055;1280;94359;-67
2022/04/17 08:00:42;;;;;;;6.70;3.80;;;;;;;23.18;31.37;101749.98;88062;1277;80584;-70
2022/04/17 08:02:55;;;;;;;4.60;3.80;;;;;;;23.38;30.85;101752.13;88092;1277;84058;-61
2022/04/17 08:05:02;;;;;;;4.40;3.80;;;;;;;23.22;30.68;101751.39;88087;1278;97930;-60
2022/04/17 08:07:09;;;;;;;4.90;3.90;;;;;;;23.08;30.54;101747.16;88118;1277;89409;-61
2022/04/17 08:09:15;;;;;;;4.10;3.50;;;;;;;23.01;30.52;101748.20;88111;1277;96143;-61
2022/04/17 08:11:25;;;;;;;4.70;3.80;;;;;;;23.55;30.27;101751.42;88094;1277;78443;-73
2022/04/17 08:13:33;;;;;;;4.80;4.00;;;;;;;23.53;30.23;101750.47;88138;1278;82478;-61
2022/04/17 08:15:39;;;;;;;4.00;3.60;;;;;;;23.31;29.90;101752.30;88092;1277;99370;-62
2022/04/17 08:17:45;;;;;;;5.00;4.20;;;;;;;22.94;29.81;101750.83;88100;1278;88113;-71
2022/04/17 08:19:54;;;;;;;5.80;4.00;;;;;;;22.99;29.78;101750.92;88096;1278;95121;-70
2022/04/17 08:22:05;;;;;;;5.10;4.10;;;;;;;23.34;29.36;101744.73;88097;1277;77975;-72
2022/04/17 08:24:11;;;;;;;6.00;4.40;;;;;;;23.92;29.09;101744.56;88130;1277;82774;-69
2022/04/17 08:26:17;;;;;;;6.50;4.10;;;;;;;24.04;29.14;101746.84;88143;1277;99680;-68
2022/04/17 08:28:27;;;;;;;5.30;3.80;;;;;;;24.24;29.05;101743.73;88167;1277;89722;-68
2022/04/17 08:30:34;;;;;;;5.80;4.30;;;;;;;24.33;28.63;101745.23;88176;1277;96213;-73
2022/04/17 08:32:40;;;;;;;5.70;4.00;;;;;;;24.27;28.71;101743.86;88124;1276;77040;-67
2022/04/17 08:34:46;;;;;;;4.10;3.50;;;;;;;24.12;28.36;101742.33;88160;1277;82483;-63
2022/04/17 08:36:55;;;;;;;4.40;3.80;;;;;;;24.14;28.30;101742.15;88194;1277;99098;-60
2022/04/17 08:39:01;;;;;;;4.20;3.50;;;;;;;24.08;27.90;101745.25;88118;1277;87828;-74
2022/04/17 08:41:06;;;;;;;5.70;3.90;;;;;;;24.27;27.80;101740.86;88102;1277;93590;-72
2022/04/17 08:43:13;;;;;;;4.40;3.80;;;;;;;24.29;27.73;101736.20;88165;1278;78323;-68
2022/04/17 08:45:23;;;;;;;4.10;3.50;;;;;;;24.06;27.76;101738.30;88169;1277;82187;-70
2022/04/17 08:47:30;;;;;;;3.80;3.40;;;;;;;23.61;27.48;101739.80;88098;1277;99908;-68
2022/04/17 08:49:37;;;;;;;4.90;3.40;;;;;;;23.19;27.47;101738.94;88195;1277;88546;-69
2022/04/17 08:51:48;;;;;;;4.10;3.70;;;;;;;22.99;27.60;101732.27;88135;1277;93301;-69
2022/04/17 08:53:59;;;;;;;4.20;3.60;;;;;;;22.98;28.13;101728.11;87999;1279;78752;-69
2022/04/17 08:56:06;;;;;;;4.30;3.90;;;;;;;22.68;28.15;101727.80;88152;1276;80539;-69
2022/04/17 08:58:15;;;;;;;3.80;3.40;;;;;;;22.76;28.20;101727.10;88199;1276;99671;-71
2022/04/17 09:00:21;;;;;;;4.00;3.60;;;;;;;22.80;27.61;101720.07;88160;1276;88968;-70
2022/04/17 09:02:27;;;;;;;4.40;4.00;;;;;;;22.61;27.58;101721.61;88124;1277;95698;-62
2022/04/17 09:04:33;;;;;;;4.70;4.10;;;;;;;22.65;27.92;101713.73;88167;1277;78543;-60
2022/04/17 09:06:39;;;;;;;6.30;3.40;;;;;;;22.96;28.48;101707.30;88115;1277;83589;-61
2022/04/17 09:09:04;;;;;;;3.90;3.50;;;;;;;22.85;28.14;101708.79;88179;1277;99558;-61
2022/04/17 09:11:11;;;;;;;4.80;3.90;;;;;;;22.58;27.98;101701.33;88110;1276;89562;-62
2022/04/17 09:13:27;;;;;;;4.20;3.50;;;;;;;22.33;27.70;101699.82;88141;1276;94321;-70
2022/04/17 09:15:34;;;;;;;4.60;4.20;;;;;;;21.68;28.02;101700.08;88114;1276;80297;-71
2022/04/17 09:17:40;;;;;;;4.80;4.30;;;;;;;21.53;28.18;101698.39;88146;1277;83138;-61
2022/04/17 09:19:49;;;;;;;5.20;3.80;;;;;;;21.43;28.30;101692.38;88187;1277;100206;-60
2022/04/17 09:21:58;;;;;;;4.80;3.90;;;;;;;21.26;28.71;101693.88;88113;1277;87822;-59
2022/04/17 09:24:21;;;;;;;5.10;4.20;;;;;;;21.09;29.00;101694.95;88182;1277;95180;-58
2022/04/17 09:26:34;;;;;;;5.30;4.20;;;;;;;20.50;29.31;101690.01;88180;1277;80001;-61
2022/04/17 09:28:45;;;;;;;4.90;4.10;;;;;;;19.95;29.41;101689.52;88211;1276;81426;-71
2022/04/17 09:30:51;;;;;;;5.30;4.00;;;;;;;19.14;29.74;101685.25;88174;1276;99431;-70
2022/04/17 09:32:58;;;;;;;4.10;3.70;;;;;;;19.12;29.51;101676.84;88155;1277;87861;-69
2022/04/17 09:35:10;;;;;;;3.80;3.50;;;;;;;18.94;29.83;101675.01;88165;1276;93980;-69
2022/04/17 09:37:18;;;;;;;4.70;4.00;;;;;;;18.80;30.49;101673.13;88181;1276;79614;-70
2022/04/17 09:39:33;;;;;;;6.90;3.90;;;;;;;18.42;30.49;101670.23;88183;1276;83124;-69
2022/04/17 09:41:59;;;;;;;6.00;3.90;;;;;;;17.88;30.84;101669.31;88195;1277;98651;-70
2022/04/17 09:44:13;;;;;;;4.20;3.80;;;;;;;17.26;31.23;101666.33;88186;1276;89076;-69
2022/04/17 09:46:20;;;;;;;3.80;3.30;;;;;;;16.94;31.38;101667.32;88168;1277;95695;-69
2022/04/17 09:48:43;;;;;;;4.20;3.20;;;;;;;16.70;31.48;101667.03;88189;1276;78323;-71
2022/04/17 09:50:53;;;;;;;5.40;3.80;;;;;;;16.63;31.50;101662.02;88105;1277;81095;-70
2022/04/17 09:53:05;;;;;;;5.00;4.50;;;;;;;16.57;31.91;101658.14;88153;1276;99390;-61
2022/04/17 09:55:12;;;;;;;4.90;3.80;;;;;;;16.40;32.39;101653.91;88124;1276;88820;-58
2022/04/17 09:57:31;;;;;;;4.30;3.80;;;;;;;16.49;32.83;101651.65;88152;1276;95523;-61
2022/04/17 09:59:37;;;;;;;3.40;3.10;;;;;;;16.58;32.68;101652.23;88115;1277;77279;-69
2022/04/17 10:01:45;;;;;;;4.40;3.00;;;;;;;16.49;31.62;101646.27;88149;1276;83176;-70
2022/04/17 10:03:58;;;;;;;4.20;3.50;;;;;;;16.13;31.42;101643.59;88189;1276;99439;-70
2022/04/17 10:06:11;;;;;;;3.90;3.30;;;;;;;16.12;31.76;101634.52;88003;1279;87964;-62
2022/04/17 10:08:26;;;;;;;5.40;3.50;;;;;;;16.19;31.88;101629.52;88121;1276;94801;-62
2022/04/17 10:10:36;;;;;;;4.90;3.60;;;;;;;16.26;31.85;101626.14;88057;1279;81245;-62
2022/04/17 10:12:47;;;;;;;4.00;3.20;;;;;;;16.34;31.47;101620.48;88115;1276;80573;-68